Latest Coastal Weather Observations for Port Fairy

IDV60701

Issued at 11:31 pm EDT Friday 24 February 2017 (issued every 10 minutes, with the page automatically refreshed every 10 minutes)

About coastal observations | Map of coastal stations | Coastal observations for VIC | Marine services | Other Formats
Station Details ID: 090175 Name: PORT FAIRY AWS Lat: -38.39 Lon: 142.23 Height: 10.0 m
Data from the previous 72 hours. | See also: Recent months at Port Fairy
Date/Time
EDT
Temp
°C
Wind Pressure Rain since
9am
mm
Weather Cloud Vis
km
Sea
Height
m
Swell
Dir  Spd
kts
Gust
kts
hPa Trend Height
m
Period
s
Dir
24/11:30pm 15.6 SSE 11 15 1026.7 - 0.2 - - - - - - -
24/11:00pm 15.4 SSE 10 13 1026.8 - 0.2 - - - - - - -
24/10:30pm 15.0 S 9 12 1026.9 - 0.2 - - - - - - -
24/10:00pm 14.4 SE 12 18 1026.9 - 0.2 - - - - - - -
24/09:30pm 16.3 SSE 9 12 1026.7 - 0.0 - - - - - - -
24/09:00pm 16.2 SSE 9 13 1026.6 - 0.0 - - - - - - -
24/08:30pm 16.1 S 8 13 1026.6 - 0.0 - - - - - - -
24/08:00pm 16.1 S 8 11 1026.5 - 0.0 - - - - - - -
24/07:30pm 16.6 S 7 11 1026.3 - 0.0 - - - - - - -
24/07:00pm 16.9 S 9 11 1026.2 - 0.0 - - - - - - -
24/06:30pm 17.3 S 9 13 1026.2 - 0.0 - - - - - - -
24/06:00pm 17.7 SSW 8 12 1026.1 - 0.0 - - - - - - -
24/05:30pm 18.0 S 8 11 1025.9 - 0.0 - - - - - - -
24/05:00pm 17.6 SSW 8 12 1025.9 - 0.0 - - - - - - -
24/04:30pm 18.3 SSW 10 14 1025.9 - 0.0 - - - - - - -
24/04:00pm 19.2 SSW 7 11 1025.9 - 0.0 - - - - - - -
24/03:30pm 18.4 SSW 8 12 1026.1 - 0.0 - - - - - - -
24/03:00pm 18.7 SSW 8 11 1026.3 - 0.0 - - - - - - -
24/02:30pm 18.7 SSW 8 11 1026.4 - 0.0 - - - - - - -
24/02:00pm 17.7 SSW 10 14 1026.5 - 0.0 - - - - - - -
24/01:30pm 17.7 SSW 10 14 1026.5 - 0.0 - - - - - - -
24/01:00pm 17.1 SSW 8 12 1026.6 - 0.0 - - - - - - -
24/12:30pm 17.4 SSW 9 12 1026.8 - 0.0 - - - - - - -
24/12:00pm 17.4 SSW 8 12 1026.9 - 0.0 - - - - - - -
24/11:30am 17.6 SSW 9 13 1026.7 - 0.0 - - - - - - -
24/11:00am 17.3 SSW 8 13 1026.5 - 0.0 - - - - - - -
24/10:30am 16.7 SSW 8 12 1026.4 - 0.0 - - - - - - -
24/10:00am 16.6 SSW 8 12 1026.2 - 0.0 - - - - - - -
24/09:30am 16.4 SSW 7 10 1026.0 - 0.0 - - - - - - -
24/09:00am 16.3 SW 8 12 1025.6 - 0.2 - - - - - - -
24/08:30am 16.1 SW 10 15 1025.4 - 0.2 - - - - - - -
24/08:00am 15.9 SW 8 11 1024.8 - 0.2 - - - - - - -
24/07:30am 15.8 SW 7 11 1024.5 - 0.2 - - - - - - -
24/07:00am 15.9 SSW 7 11 1024.2 - 0.2 - - - - - - -
24/06:30am 16.0 SW 10 13 1024.1 - 0.2 - - - - - - -
24/06:00am 15.8 SSW 5 9 1023.7 - 0.2 - - - - - - -
24/05:30am 15.8 SW 7 11 1023.7 - 0.2 - - - - - - -
24/05:00am 15.9 SW 11 14 1023.5 - 0.2 - - - - - - -
24/04:30am 16.0 SSW 8 12 1023.6 - 0.2 - - - - - - -
24/04:00am 15.7 WSW 8 13 1023.5 - 0.2 - - - - - - -
24/03:30am 15.6 WSW 8 11 1023.4 - 0.2 - - - - - - -
24/03:00am 15.6 SW 9 12 1023.4 - 0.2 - - - - - - -
24/02:30am 15.8 SW 8 11 1023.5 - 0.2 - - - - - - -
24/02:00am 16.0 SSW 8 11 1023.5 - 0.2 - - - - - - -
24/01:30am 16.0 SW 9 14 1023.9 - 0.2 - - - - - - -
24/01:00am 16.1 SW 9 13 1024.1 - 0.2 - - - - - - -
24/12:30am 16.3 SSW 10 13 1024.0 - 0.2 - - - - - - -
24/12:00am 16.0 SSW 10 15 1023.8 - 0.2 - - - - - - -
 
Date/Time
EDT
Temp
°C
Wind Pressure Rain since
9am
mm
Weather Cloud Vis
km
Sea
Height
m
Swell
Dir  Spd
kts
Gust
kts
hPa Trend Height
m
Period
s
Dir
23/11:30pm 16.0 SSW 8 13 1023.8 - 0.2 - - - - - - -
23/11:00pm 15.9 SSW 8 12 1023.8 - 0.2 - - - - - - -
23/10:30pm 16.0 SSW 8 11 1023.8 - 0.2 - - - - - - -
23/10:00pm 15.6 SSW 8 11 1023.5 - 0.2 - - - - - - -
23/09:30pm 16.0 SSW 8 11 1023.1 - 0.2 - - - - - - -
23/09:00pm 15.7 SSW 8 11 1022.6 - 0.2 - - - - - - -
23/08:30pm 15.7 SSW 7 11 1022.2 - 0.2 - - - - - - -
23/08:00pm 15.6 SW 9 11 1021.9 - 0.2 - - - - - - -
23/07:30pm 16.2 SW 9 12 1021.6 - 0.2 - - - - - - -
23/07:00pm 16.1 SW 11 14 1021.5 - 0.2 - - - - - - -
23/06:30pm 16.1 SW 13 16 1021.2 - 0.2 - - - - - - -
23/06:00pm 17.2 WSW 11 14 1021.0 - 0.2 - - - - - - -
23/05:30pm 17.3 SW 11 14 1020.6 - 0.2 - - - - - - -
23/05:00pm 18.1 SW 10 13 1020.4 - 0.2 - - - - - - -
23/04:30pm 17.5 WSW 13 16 1020.3 - 0.2 - - - - - - -
23/04:00pm 18.0 WSW 14 18 1020.1 - 0.2 - - - - - - -
23/03:30pm 19.2 SW 10 13 1019.8 - 0.2 - - - - - - -
23/03:00pm 19.5 WSW 10 15 1019.6 - 0.2 - - - - - - -
23/02:30pm 20.5 WSW 9 12 1019.2 - 0.2 - - - - - - -
23/02:00pm 19.6 WSW 11 15 1019.1 - 0.2 - - - - - - -
23/01:30pm 18.2 WSW 10 13 1019.0 - 0.2 - - - - - - -
23/01:00pm 17.6 WSW 9 13 1019.0 - 0.2 - - - - - - -
23/12:30pm 18.6 SW 11 15 1019.0 - 0.0 - - - - - - -
23/12:00pm 18.9 WSW 13 15 1018.8 - 0.0 - - - - - - -
23/11:30am 19.8 WSW 15 18 1018.4 - 0.0 - - - - - - -
23/11:00am 19.4 WSW 15 20 1018.1 - 0.0 - - - - - - -
23/10:30am 18.4 W 14 18 1017.7 - 0.0 - - - - - - -
23/10:00am 18.2 WSW 15 21 1017.3 - 0.0 - - - - - - -
23/09:30am 18.6 W 14 19 1016.8 - 0.0 - - - - - - -
23/09:00am 17.7 W 14 19 1016.3 - 0.0 - - - - - - -
23/08:30am 16.7 W 13 20 1015.9 - 0.0 - - - - - - -
23/08:00am 16.4 WNW 12 19 1015.2 - 0.0 - - - - - - -
23/07:30am 17.3 W 10 16 1014.5 - 0.0 - - - - - - -
23/07:00am 16.8 W 11 18 1014.0 - 0.0 - - - - - - -
23/06:30am 17.3 W 15 22 1013.5 - 0.0 - - - - - - -
23/06:00am 17.3 WNW 11 19 1012.9 - 0.0 - - - - - - -
23/05:30am 16.8 WNW 8 14 1012.5 - 0.0 - - - - - - -
23/05:00am 16.7 NW 7 12 1011.9 - 0.0 - - - - - - -
23/04:30am 16.9 NW 7 13 1011.7 - 0.0 - - - - - - -
23/04:00am 16.6 NW 8 13 1011.5 - 0.0 - - - - - - -
23/03:30am 17.0 NW 7 13 1011.1 - 0.0 - - - - - - -
23/03:00am 17.2 NW 9 14 1010.9 - 0.0 - - - - - - -
23/02:30am 17.3 NW 8 13 1011.1 - 0.0 - - - - - - -
23/02:00am 17.3 NW 5 9 1011.3 - 0.0 - - - - - - -
23/01:30am 17.4 NW 5 8 1011.1 - 0.0 - - - - - - -
23/01:00am 18.2 NW 8 13 1010.8 - 0.0 - - - - - - -
23/12:30am 18.7 NW 9 20 1010.4 - 0.0 - - - - - - -
23/12:00am 19.1 NW 11 20 1010.2 - 0.0 - - - - - - -
 
Date/Time
EDT
Temp
°C
Wind Pressure Rain since
9am
mm
Weather Cloud Vis
km
Sea
Height
m
Swell
Dir  Spd
kts
Gust
kts
hPa Trend Height
m
Period
s
Dir
22/11:30pm 19.2 NW 10 18 1010.3 - 0.0 - - - - - - -
22/11:00pm 19.4 NW 11 18 1010.2 - 0.0 - - - - - - -
22/10:30pm 19.0 NW 7 10 1010.0 - 0.0 - - - - - - -
22/10:00pm 19.8 NW 8 15 1009.8 - 0.0 - - - - - - -
22/09:30pm 19.6 NW 5 8 1009.3 - 0.0 - - - - - - -
22/09:00pm 19.7 NNW 3 7 1008.5 - 0.0 - - - - - - -
22/08:30pm 20.0 WNW 6 11 1008.0 - 0.0 - - - - - - -
22/08:00pm 20.0 WNW 12 19 1007.6 - 0.0 - - - - - - -
22/07:30pm 20.0 W 15 26 1007.4 - 0.0 - - - - - - -
22/07:00pm 20.1 W 16 27 1007.3 - 0.0 - - - - - - -
22/06:54pm 20.2 W 16 27 1007.4 - 0.0 - - - - - - -
22/06:30pm 20.2 WSW 18 25 1007.0 - 0.0 - - - - - - -
22/06:00pm 20.2 WSW 20 26 1006.7 - 0.0 - - - - - - -
22/05:30pm 21.2 WSW 17 22 1006.2 - 0.0 - - - - - - -
22/05:00pm 22.3 WSW 19 26 1005.7 - 0.0 - - - - - - -
22/04:39pm 23.7 WSW 18 35 1005.0 - 0.0 - - - - - - -
22/04:37pm 24.6 W 15 35 1005.2 - 0.0 - - - - - - -
22/04:31pm 29.4 NW 15 35 1005.5 - 0.0 - - - - - - -
22/04:30pm 33.2 NW 15 35 1005.2 - 0.0 - - - - - - -
22/04:00pm 34.0 NNW 15 27 1004.7 - 0.0 - - - - - - -
22/03:36pm 33.8 NNW 15 25 1005.2 - 0.0 - - - - - - -
22/03:30pm 33.6 NNW 16 25 1005.4 - 0.0 - - - - - - -
22/03:06pm 33.3 NNW 16 26 1005.7 - 0.0 - - - - - - -
22/03:00pm 33.4 NNW 14 25 1005.9 - 0.0 - - - - - - -
22/02:33pm 32.6 NNW 17 27 1006.5 - 0.0 - - - - - - -
22/02:30pm 32.7 NNW 16 25 1006.5 - 0.0 - - - - - - -
22/02:00pm 30.8 N 15 27 1007.2 - 0.0 - - - - - - -
22/01:32pm 30.4 N 17 28 1007.7 - 0.0 - - - - - - -
22/01:30pm 30.6 N 18 28 1007.7 - 0.0 - - - - - - -
22/01:00pm 30.3 N 17 28 1008.2 - 0.0 - - - - - - -
22/12:53pm 31.2 N 18 28 1008.1 - 0.0 - - - - - - -
22/12:30pm 30.0 N 17 26 1008.3 - 0.0 - - - - - - -
22/12:00pm 29.1 N 15 27 1008.7 - 0.0 - - - - - - -
22/11:50am 27.8 N 15 27 1008.8 - 0.0 - - - - - - -
22/11:30am 28.3 N 14 23 1009.3 - 0.0 - - - - - - -
22/11:00am 27.4 NNE 13 21 1009.7 - 0.0 - - - - - - -
22/10:30am 25.9 N 15 22 1010.5 - 0.0 - - - - - - -
22/10:00am 24.5 N 13 19 1010.8 - 0.0 - - - - - - -
22/09:30am 22.1 NNE 11 17 1011.0 - 0.0 - - - - - - -
22/09:00am 20.3 NNE 9 18 1011.2 - 0.0 - - - - - - -
22/08:30am 17.7 NNE 8 12 1011.3 - - - - - - - - -
22/08:00am 15.1 NNE 8 13 1011.4 - - - - - - - - -
22/07:30am 14.1 NNE 8 11 1011.7 - - - - - - - - -
22/07:00am 13.9 NNE 8 11 1011.6 - - - - - - - - -
22/06:30am 13.5 NNE 7 11 1011.8 - - - - - - - - -
22/06:00am 13.2 NNE 8 11 1011.8 - - - - - - - - -
22/05:30am 12.9 NNE 6 9 1011.9 - - - - - - - - -
22/05:00am 13.5 NNE 7 11 1012.0 - - - - - - - - -
22/04:30am 13.6 NNE 7 10 1012.2 - - - - - - - - -
22/04:00am 13.8 NNE 6 10 1012.5 - - - - - - - - -
22/03:30am 13.9 NE 7 10 1013.0 - - - - - - - - -
22/03:00am 14.1 NNE 8 11 1013.4 - 0.0 - - - - - - -
22/02:30am 14.2 NNE 8 11 1013.9 - - - - - - - - -
22/02:00am 14.7 NE 7 12 1014.3 - - - - - - - - -
22/01:30am 14.8 NNE 7 11 1014.8 - - - - - - - - -
22/01:00am 15.2 NE 7 12 1015.1 - - - - - - - - -
22/12:30am 15.7 NE 8 12 1015.3 - - - - - - - - -
22/12:00am 16.2 NE 9 14 1015.6 - - - - - - - - -

Other Formats:

Comma delimited format used in spreadsheet applications
http://www.bom.gov.au/fwo/IDV60701/IDV60701.94830.axf

JavaScript Object Notation format (JSON) in row-major order
http://www.bom.gov.au/fwo/IDV60701/IDV60701.94830.json